Tolani, Arizona
Current Conditions -  °F | °C
As of 2:56 AM on Tuesday 21 Oct 2014 (Local Time) from KINW Reporting Station
Clear Clear  
Wind Chill: 44°   Ceiling: Unl
Heat Index: 48°   Visibility: 10mi
Dew Point: 42°   Wind: 8mph
Humidity: 80%   Direction: 100°E
Pressure: 30.08"   Gusts: NA
Location:  35.1934°N, 110.361°W
Report Text: KINW 210956Z AUTO 10007KT 10SM CLR 09/06 A3008 RMK AO2 SLP138 T00890056
Loading
Personal Weather Stations






























Interactive Weather Map
Tropical Storm Tracking
New forecast layout! Learn more

10-Day Weather Forecast

Advertisements
Track Severe Weather on mobile